Pireps
You are here: Olympic Virtual Pireps

Flight OLY10076

  • Submitted By: Stavros Sarikas
  • Departure Airport: FIUMICINO (LIRF)
  • Arrival Airport: MALPENSA (LIMC)
  • Aircraft: A340-600 (SX-DFI)
  • Flight Time: 01.06
  • Date Submitted: 21/08/2017
  • Route: GILIO Q704 KARDU Q703 KALMO DCT GOLAS
  • Status: Accepted
Flight Details
Gross Revenue:
(296 load / € 69.00 per unit
€ 20, 424.00
Fuel Cost:
(-229 fuel used @ 0.19 / unit)
(€ -43.51)

Additional Log Information:

View Log

Aircraft Used in flight is Airbus A320 British Airways G-EUUU
22:59 Boarding
22:59 Navigation Lights ON at 30 Feet
22:59 Beacon Lights ON at 30 Feet
22:59 Brakes are On
22:59 In Air Refuel Suspected
23:02 Engine 2 Started
23:04 Engine 1 Started
23:05 Flaps 3 Selected at 30ft and 3kts
23:07 Brakes are Released
23:07 Pushing back
23:08 Taxi Lights ON at 30 Feet
23:09 Landing Lights ON at 30 AGL
23:09 Strobe Lights ON at 30 Feet
23:12 You Took off @ 147 Knots and Flaps at Position 3 With a heading of 343 Degrees
Departure Weather LIRF 211950Z 01009KT CAVOK 26/06 Q1014 NOSIG
Departure Coordinates 41.8255381375544/ 12.2668134058983
Takeoff Weight=59631KG Fuel Weight=4786KG
23:12 Paused
23:12 TOC Reached
23:12 Unpaused
23:12 Landing Gear Up @ 156 Knots and 90 Feet
23:12 Taxi Lights OFF at 100 Feet
23:13 Flaps 2 Selected at 1690ft and 154kts
23:13 Flaps 0 Selected at 1900ft and 185kts
23:15 Above FL100 you need to switch of the landing lights
23:41 You exceeded maximum bank angle
00:00 Flaps 1 Selected at 2930ft and 208kts
00:01 Flaps 3 Selected at 2650ft and 190kts
00:01 Landing Gear Down @ 188 Knots and 2560 Feet
00:01 Flaps 4 Selected at 2400ft and 175kts
00:01 Taxi Lights ON at 2380 Feet
00:01 Flaps 5 Selected at 2360ft and 166kts
00:04 You Landed @ 130 Knots with -465 Vertical Speed With a heading of 348 and with 2.168 G Force
Arrival Weather: LIMC 212050Z VRB01KT CAVOK 20/13 Q1020 NOSIG
Arrival Coordinates 45.6171043447226/ 8.72654037468075
Landing Weight=57506KG Fuel Weight=2661KG
00:04 Paused
00:05 Taxiing to gate
00:05 Landing Lights OFF at 780 AGL
00:05 Unpaused
00:05 Strobe Lights OFF at 780 Feet
00:05 Flaps 0 Selected at 780ft and 0kts
Pirep logged with OA Virtual Tracking 1.0.2.3

Route Map